createdAt,value
2018-09-12T00:01:43.732Z,10.40
2018-09-12T00:04:12.793Z,10.40
2018-09-12T00:06:42.001Z,10.30
2018-09-12T00:09:12.226Z,10.30
2018-09-12T00:11:41.672Z,10.30
2018-09-12T00:14:11.133Z,10.30
2018-09-12T00:16:40.291Z,10.20
2018-09-12T00:19:09.502Z,10.20
2018-09-12T00:21:38.663Z,10.10
2018-09-12T00:24:08.018Z,10.10
2018-09-12T00:26:37.200Z,10.10
2018-09-12T00:29:06.339Z,10.00
2018-09-12T00:31:35.799Z,10.00
2018-09-12T00:34:05.117Z,10.00
2018-09-12T00:36:34.464Z,9.90
2018-09-12T00:39:04.225Z,9.90
2018-09-12T00:41:33.647Z,9.90
2018-09-12T00:44:02.786Z,9.90
2018-09-12T00:46:32.288Z,9.90
2018-09-12T00:49:01.279Z,9.90
2018-09-12T00:51:30.859Z,9.90
2018-09-12T00:54:00.366Z,9.90
2018-09-12T00:56:29.723Z,10.00
2018-09-12T00:58:59.152Z,9.80
2018-09-12T01:01:28.774Z,9.80
2018-09-12T01:03:57.936Z,9.80
2018-09-12T01:06:27.143Z,9.70
2018-09-12T01:08:56.438Z,9.60
2018-09-12T01:11:25.786Z,9.60
2018-09-12T01:13:56.009Z,9.50
2018-09-12T01:16:25.281Z,9.60
2018-09-12T01:18:54.413Z,9.60
2018-09-12T01:21:23.753Z,9.60
2018-09-12T01:23:52.675Z,9.50
2018-09-12T01:26:21.968Z,9.50
2018-09-12T01:28:51.412Z,9.30
2018-09-12T01:31:20.715Z,9.40
2018-09-12T01:33:50.342Z,9.40
2018-09-12T01:36:19.916Z,9.40
2018-09-12T01:38:49.396Z,9.40
2018-09-12T01:41:18.532Z,9.40
2018-09-12T01:43:48.081Z,9.40
2018-09-12T01:46:17.492Z,9.40
2018-09-12T01:48:46.707Z,9.40
2018-09-12T01:51:15.908Z,9.40
2018-09-12T01:53:45.184Z,9.20
2018-09-12T01:56:14.328Z,9.30
2018-09-12T01:58:43.760Z,9.20
2018-09-12T02:01:12.971Z,9.30
2018-09-12T02:03:42.173Z,9.30
2018-09-12T02:06:11.448Z,9.30
2018-09-12T02:08:40.772Z,9.30
2018-09-12T02:11:09.768Z,9.30
2018-09-12T02:13:39.212Z,9.30
2018-09-12T02:16:08.285Z,9.00
2018-09-12T02:18:37.731Z,9.10
2018-09-12T02:21:07.191Z,9.10
2018-09-12T02:23:36.319Z,9.20
2018-09-12T02:26:05.564Z,9.20
2018-09-12T02:28:34.620Z,9.00
2018-09-12T02:31:03.915Z,9.20
2018-09-12T02:33:33.448Z,9.20
2018-09-12T02:36:07.907Z,9.20
2018-09-12T02:38:37.312Z,9.20
2018-09-12T02:41:06.457Z,9.30
2018-09-12T02:43:35.919Z,9.10
2018-09-12T02:46:05.022Z,9.10
2018-09-12T02:48:34.272Z,9.10
2018-09-12T02:51:03.452Z,9.10
2018-09-12T02:53:32.807Z,9.10
2018-09-12T02:56:02.240Z,9.20
2018-09-12T02:58:31.548Z,9.10
2018-09-12T03:01:00.461Z,9.20
2018-09-12T03:03:29.667Z,9.10
2018-09-12T03:05:59.179Z,9.10
2018-09-12T03:08:28.597Z,9.10
2018-09-12T03:10:57.836Z,9.10
2018-09-12T03:13:27.304Z,9.00
2018-09-12T03:15:56.251Z,9.00
2018-09-12T03:18:25.602Z,9.00
2018-09-12T03:20:54.891Z,9.00
2018-09-12T03:23:24.216Z,8.70
2018-09-12T03:25:53.772Z,8.80
2018-09-12T03:28:23.625Z,8.80
2018-09-12T03:30:53.380Z,8.70
2018-09-12T03:33:22.496Z,8.60
2018-09-12T03:35:51.759Z,8.60
2018-09-12T03:38:20.954Z,8.60
2018-09-12T03:40:50.369Z,8.70
2018-09-12T03:43:19.555Z,8.70
2018-09-12T03:45:48.739Z,8.60
2018-09-12T03:48:17.806Z,8.70
2018-09-12T03:50:47.243Z,8.70
2018-09-12T03:53:16.225Z,8.60
2018-09-12T03:55:45.770Z,8.60
2018-09-12T03:58:15.102Z,8.60
2018-09-12T04:00:44.283Z,8.60
2018-09-12T04:03:13.524Z,8.50
2018-09-12T04:05:43.140Z,8.50
2018-09-12T04:08:12.536Z,8.50
2018-09-12T04:10:42.336Z,8.40
2018-09-12T04:13:11.639Z,8.40
2018-09-12T04:15:41.380Z,8.50
2018-09-12T04:18:10.758Z,8.30
2018-09-12T04:20:40.592Z,8.30
2018-09-12T04:23:09.896Z,8.20
2018-09-12T04:25:39.135Z,8.40
2018-09-12T04:28:08.619Z,8.40
2018-09-12T04:30:37.855Z,8.40
2018-09-12T04:33:08.002Z,8.40
2018-09-12T04:35:37.321Z,8.60
2018-09-12T04:38:06.516Z,8.50
2018-09-12T04:40:35.628Z,8.60
2018-09-12T04:43:05.439Z,8.60
2018-09-12T04:45:34.870Z,8.70
2018-09-12T04:48:04.255Z,8.50
2018-09-12T04:50:33.468Z,8.50
2018-09-12T04:53:02.948Z,8.60
2018-09-12T04:55:32.295Z,8.70
2018-09-12T04:58:01.576Z,8.80
2018-09-12T05:00:30.788Z,8.80
2018-09-12T05:03:00.435Z,8.70
2018-09-12T05:05:29.627Z,8.60
2018-09-12T05:07:59.095Z,8.70
2018-09-12T05:10:28.441Z,8.80
2018-09-12T05:12:57.763Z,8.90
2018-09-12T05:15:27.188Z,9.00
2018-09-12T05:17:56.719Z,9.10
2018-09-12T05:20:25.955Z,9.10
2018-09-12T05:22:55.220Z,9.10
2018-09-12T05:25:24.363Z,9.20
2018-09-12T05:27:54.057Z,9.30
2018-09-12T05:30:23.473Z,9.30
2018-09-12T05:32:52.937Z,9.30
2018-09-12T05:35:22.188Z,9.40
2018-09-12T05:37:51.626Z,9.60
2018-09-12T05:40:20.833Z,9.60
2018-09-12T05:42:50.735Z,9.70
2018-09-12T05:45:20.000Z,9.70
2018-09-12T05:47:49.389Z,9.90
2018-09-12T05:50:18.583Z,10.20
2018-09-12T05:52:48.022Z,10.40
2018-09-12T05:55:17.264Z,10.60
2018-09-12T05:57:46.720Z,10.60
2018-09-12T06:00:16.105Z,10.70
2018-09-12T06:02:45.379Z,10.70
2018-09-12T06:05:14.525Z,10.90
2018-09-12T06:07:44.039Z,11.10
2018-09-12T06:10:13.139Z,11.30
2018-09-12T06:12:43.588Z,11.40
2018-09-12T06:15:13.089Z,11.60
2018-09-12T06:17:42.624Z,11.70
2018-09-12T06:20:11.795Z,11.90
2018-09-12T06:22:41.172Z,12.00
2018-09-12T06:25:10.352Z,12.10
2018-09-12T06:27:39.899Z,12.30
2018-09-12T06:30:09.144Z,12.40
2018-09-12T06:32:38.493Z,12.60
2018-09-12T06:35:07.584Z,12.70
2018-09-12T06:37:37.157Z,12.90
2018-09-12T06:40:06.464Z,13.10
2018-09-12T06:42:35.896Z,13.20
2018-09-12T06:45:05.942Z,13.40
2018-09-12T06:47:35.164Z,13.50
2018-09-12T06:50:04.650Z,13.80
2018-09-12T06:52:34.453Z,13.90
2018-09-12T06:55:04.292Z,14.10
2018-09-12T06:57:33.777Z,14.30
2018-09-12T07:00:03.252Z,14.40
2018-09-12T07:02:32.673Z,14.70
2018-09-12T07:05:02.212Z,14.80
2018-09-12T07:07:31.535Z,15.00
2018-09-12T07:10:00.823Z,15.10
2018-09-12T07:12:30.205Z,15.30
2018-09-12T07:14:59.755Z,15.60
2018-09-12T07:17:29.142Z,15.80
2018-09-12T07:19:58.375Z,16.00
2018-09-12T07:22:27.669Z,16.20
2018-09-12T07:24:57.600Z,16.30
2018-09-12T07:27:26.792Z,16.40
2018-09-12T07:29:55.934Z,16.60
2018-09-12T07:32:25.151Z,16.90
2018-09-12T07:34:56.098Z,17.10
2018-09-12T07:37:25.852Z,17.20
2018-09-12T07:39:55.017Z,17.50
2018-09-12T07:42:23.983Z,17.70
2018-09-12T07:44:53.073Z,18.00
2018-09-12T07:47:22.278Z,18.00
2018-09-12T07:49:51.512Z,18.10
2018-09-12T07:52:20.707Z,18.20
2018-09-12T07:54:49.803Z,18.40
2018-09-12T07:57:19.462Z,18.70
2018-09-12T07:59:48.803Z,18.70
2018-09-12T08:02:17.890Z,19.20
2018-09-12T08:04:47.160Z,19.50
2018-09-12T08:07:16.418Z,19.90
2018-09-12T08:09:45.884Z,20.20
2018-09-12T08:12:15.204Z,20.00
2018-09-12T08:14:44.656Z,20.30
2018-09-12T08:17:13.742Z,20.40
2018-09-12T08:19:43.315Z,20.70
2018-09-12T08:22:12.670Z,20.80
2018-09-12T08:24:41.796Z,20.60
2018-09-12T08:27:11.034Z,20.70
2018-09-12T08:29:40.236Z,21.00
2018-09-12T08:32:09.396Z,21.40
2018-09-12T08:34:38.792Z,21.70
2018-09-12T08:37:08.252Z,21.70
2018-09-12T08:39:37.396Z,22.20
2018-09-12T08:42:06.407Z,22.10
2018-09-12T08:44:35.768Z,22.20
2018-09-12T08:47:05.231Z,22.30
2018-09-12T08:49:34.459Z,22.60
2018-09-12T08:52:04.057Z,22.80
2018-09-12T08:54:33.498Z,23.00
2018-09-12T08:57:02.725Z,23.40
2018-09-12T08:59:32.384Z,23.80
2018-09-12T09:02:01.760Z,23.70
2018-09-12T09:04:31.357Z,23.90
2018-09-12T09:07:00.576Z,23.90
2018-09-12T09:09:29.762Z,23.90
2018-09-12T09:11:58.896Z,24.40
2018-09-12T09:14:28.179Z,24.20
2018-09-12T09:16:57.439Z,24.20
2018-09-12T09:19:26.904Z,24.50
2018-09-12T09:21:56.348Z,24.90
2018-09-12T09:24:25.545Z,25.40
2018-09-12T09:26:54.672Z,25.30
2018-09-12T09:29:23.954Z,25.40
2018-09-12T09:31:53.335Z,25.50
2018-09-12T09:34:22.544Z,26.10
2018-09-12T09:36:51.975Z,26.00
2018-09-12T09:39:21.001Z,26.10
2018-09-12T09:41:50.136Z,26.00
2018-09-12T09:44:19.457Z,26.30
2018-09-12T09:46:48.460Z,26.50
2018-09-12T09:49:17.969Z,26.40
2018-09-12T09:51:47.740Z,26.90
2018-09-12T09:54:16.932Z,27.10
2018-09-12T09:56:46.144Z,27.10
2018-09-12T09:59:15.359Z,27.50
2018-09-12T10:01:49.834Z,26.90
2018-09-12T10:04:24.239Z,26.90
2018-09-12T10:07:03.384Z,27.00
2018-09-12T10:09:33.695Z,26.90
2018-09-12T10:12:04.212Z,27.30
2018-09-12T10:14:33.406Z,28.00
2018-09-12T10:17:02.795Z,27.50
2018-09-12T10:19:32.086Z,27.70
2018-09-12T10:22:01.304Z,28.30
2018-09-12T10:24:30.916Z,28.00
2018-09-12T10:27:00.225Z,27.70
2018-09-12T10:29:31.129Z,27.70
2018-09-12T10:32:00.701Z,28.20
2018-09-12T10:34:29.883Z,28.60
2018-09-12T10:36:59.216Z,27.80
2018-09-12T10:39:28.333Z,27.50
2018-09-12T10:41:57.668Z,28.10
2018-09-12T10:44:26.824Z,28.20
2018-09-12T10:46:56.252Z,28.50
2018-09-12T10:49:25.494Z,28.90
2018-09-12T10:51:54.648Z,28.10
2018-09-12T10:54:23.601Z,28.40
2018-09-12T10:56:52.727Z,27.80
2018-09-12T10:59:21.908Z,28.30
2018-09-12T11:01:51.224Z,29.20
2018-09-12T11:04:20.490Z,29.10
2018-09-12T11:06:50.382Z,29.30
2018-09-12T11:09:19.663Z,28.20
2018-09-12T11:11:49.004Z,28.70
2018-09-12T11:14:18.148Z,29.10
2018-09-12T11:16:47.411Z,29.40
2018-09-12T11:19:16.508Z,29.20
2018-09-12T11:21:45.972Z,29.10
2018-09-12T11:24:15.488Z,28.20
2018-09-12T11:26:44.721Z,28.40
2018-09-12T11:29:14.456Z,29.10
2018-09-12T11:31:43.904Z,28.50
2018-09-12T11:34:13.007Z,28.60
2018-09-12T11:36:42.654Z,28.70
2018-09-12T11:39:12.270Z,29.40
2018-09-12T11:41:41.921Z,28.80
2018-09-12T11:44:11.029Z,28.80
2018-09-12T11:46:40.392Z,29.70
2018-09-12T11:49:09.659Z,29.10
2018-09-12T11:51:39.121Z,30.00
2018-09-12T11:54:08.301Z,29.60
2018-09-12T11:56:37.883Z,29.70
2018-09-12T11:59:07.089Z,29.90
2018-09-12T12:01:36.515Z,30.50
2018-09-12T12:04:05.943Z,30.10
2018-09-12T12:06:35.207Z,30.20
2018-09-12T12:09:05.992Z,30.20
2018-09-12T12:11:35.316Z,30.20
2018-09-12T12:14:04.513Z,30.10
2018-09-12T12:16:34.160Z,30.00
2018-09-12T12:19:03.229Z,30.10
2018-09-12T12:21:32.331Z,30.00
2018-09-12T12:24:01.632Z,30.20
2018-09-12T12:26:30.934Z,29.90
2018-09-12T12:29:00.174Z,29.00
2018-09-12T12:31:29.479Z,29.40
2018-09-12T12:33:59.164Z,30.10
2018-09-12T12:36:28.355Z,29.90
2018-09-12T12:38:57.451Z,30.30
2018-09-12T12:41:26.737Z,29.70
2018-09-12T12:43:55.772Z,29.90
2018-09-12T12:46:24.847Z,29.40
2018-09-12T12:48:53.928Z,29.10
2018-09-12T12:51:23.208Z,29.30
2018-09-12T12:53:52.790Z,29.50
2018-09-12T12:56:21.835Z,29.20
2018-09-12T12:58:51.208Z,29.20
2018-09-12T13:01:20.355Z,29.70
2018-09-12T13:03:49.989Z,29.90
2018-09-12T13:06:19.199Z,29.80
2018-09-12T13:08:48.335Z,30.10
2018-09-12T13:11:17.671Z,30.20
2018-09-12T13:13:47.012Z,30.10
2018-09-12T13:16:16.322Z,30.20
2018-09-12T13:18:45.388Z,29.60
2018-09-12T13:21:14.626Z,29.30
2018-09-12T13:23:44.184Z,28.90
2018-09-12T13:26:13.478Z,29.30
2018-09-12T13:28:43.064Z,29.60
2018-09-12T13:31:12.418Z,29.20
2018-09-12T13:33:41.610Z,28.90
2018-09-12T13:36:10.856Z,28.90
2018-09-12T13:38:39.779Z,28.90
2018-09-12T13:41:08.981Z,29.10
2018-09-12T13:43:38.444Z,28.80
2018-09-12T13:46:07.439Z,29.20
2018-09-12T13:48:36.692Z,28.80
2018-09-12T13:51:05.841Z,29.00
2018-09-12T13:53:35.075Z,28.10
2018-09-12T13:56:04.222Z,28.30
2018-09-12T13:58:33.639Z,28.20
2018-09-12T14:01:02.994Z,28.20
2018-09-12T14:03:32.308Z,28.20
2018-09-12T14:06:01.465Z,28.10
2018-09-12T14:08:30.643Z,28.00
2018-09-12T14:10:59.868Z,27.80
2018-09-12T14:13:29.217Z,27.80
2018-09-12T14:15:58.399Z,27.60
2018-09-12T14:18:27.865Z,27.50
2018-09-12T14:20:57.017Z,27.30
2018-09-12T14:23:26.404Z,27.10
2018-09-12T14:25:55.535Z,26.90
2018-09-12T14:28:24.890Z,26.80
2018-09-12T14:30:54.307Z,26.80
2018-09-12T14:33:23.451Z,26.80
2018-09-12T14:35:53.204Z,26.70
2018-09-12T14:38:22.476Z,26.60
2018-09-12T14:40:51.612Z,26.40
2018-09-12T14:43:20.720Z,26.60
2018-09-12T14:45:49.915Z,26.40
2018-09-12T14:48:19.116Z,26.30
2018-09-12T14:50:48.325Z,26.40
2018-09-12T14:53:17.272Z,26.40
2018-09-12T14:55:46.721Z,26.20
2018-09-12T14:58:15.944Z,26.10
2018-09-12T15:00:45.116Z,25.90
2018-09-12T15:03:14.902Z,25.80
2018-09-12T15:05:44.016Z,25.70
2018-09-12T15:08:13.425Z,25.70
2018-09-12T15:10:42.576Z,25.70
2018-09-12T15:13:12.128Z,25.60
2018-09-12T15:15:41.271Z,25.60
2018-09-12T15:18:10.413Z,25.60
2018-09-12T15:20:39.583Z,25.40
2018-09-12T15:23:08.824Z,25.40
2018-09-12T15:25:37.943Z,25.10
2018-09-12T15:28:07.245Z,24.80
2018-09-12T15:30:36.460Z,24.70
2018-09-12T15:33:05.675Z,24.30
2018-09-12T15:35:34.843Z,23.90
2018-09-12T15:38:04.431Z,23.60
2018-09-12T15:40:33.744Z,23.10
2018-09-12T15:43:03.051Z,22.80
2018-09-12T15:45:32.932Z,22.60
2018-09-12T15:48:02.218Z,22.10
2018-09-12T15:50:31.657Z,21.70
2018-09-12T15:53:00.847Z,21.50
2018-09-12T15:55:30.200Z,21.40
2018-09-12T15:57:59.574Z,21.30
2018-09-12T16:00:28.716Z,21.30
2018-09-12T16:02:57.856Z,21.20
2018-09-12T16:05:27.172Z,21.20
2018-09-12T16:07:56.470Z,20.80
2018-09-12T16:10:25.491Z,20.60
2018-09-12T16:12:54.847Z,20.50
2018-09-12T16:15:24.003Z,20.50
2018-09-12T16:17:54.151Z,20.60
2018-09-12T16:20:23.572Z,20.70
2018-09-12T16:22:52.664Z,20.70
2018-09-12T16:25:22.138Z,20.70
2018-09-12T16:27:51.339Z,20.60
2018-09-12T16:30:20.799Z,20.50
2018-09-12T16:32:50.028Z,20.40
2018-09-12T16:35:19.342Z,20.20
2018-09-12T16:37:48.881Z,20.20
2018-09-12T16:40:17.986Z,20.00
2018-09-12T16:42:47.504Z,19.80
2018-09-12T16:45:16.719Z,19.70
2018-09-12T16:47:45.977Z,19.60
2018-09-12T16:50:15.819Z,19.60
2018-09-12T16:52:45.053Z,19.60
2018-09-12T16:55:14.222Z,19.40
2018-09-12T16:57:43.513Z,19.40
2018-09-12T17:00:12.606Z,19.20
2018-09-12T17:02:42.105Z,19.10
2018-09-12T17:05:11.432Z,18.90
2018-09-12T17:07:41.842Z,18.80
2018-09-12T17:10:11.077Z,18.80
2018-09-12T17:12:40.405Z,18.90
2018-09-12T17:15:09.777Z,19.20
2018-09-12T17:17:39.973Z,19.50
2018-09-12T17:20:09.379Z,19.30
2018-09-12T17:22:38.580Z,19.20
2018-09-12T17:25:07.988Z,19.00
2018-09-12T17:27:37.275Z,18.90
2018-09-12T17:30:06.293Z,18.70
2018-09-12T17:32:35.485Z,18.50
2018-09-12T17:35:04.628Z,18.10
2018-09-12T17:37:33.899Z,18.00
2018-09-12T17:40:03.272Z,17.90
2018-09-12T17:42:32.446Z,17.90
2018-09-12T17:45:01.955Z,17.80
2018-09-12T17:47:31.578Z,17.60
2018-09-12T17:50:00.717Z,17.50
2018-09-12T17:52:30.230Z,17.30
2018-09-12T17:54:59.649Z,17.20
2018-09-12T17:57:28.783Z,17.10
2018-09-12T17:59:57.956Z,17.10
2018-09-12T18:02:27.269Z,16.80
2018-09-12T18:04:56.410Z,16.90
2018-09-12T18:07:26.296Z,16.60
2018-09-12T18:09:55.642Z,16.70
2018-09-12T18:12:24.887Z,16.50
2018-09-12T18:14:54.350Z,16.30
2018-09-12T18:17:24.447Z,16.20
2018-09-12T18:19:54.454Z,16.20
2018-09-12T18:22:23.712Z,16.00
2018-09-12T18:24:53.042Z,15.90
2018-09-12T18:27:22.318Z,15.90
2018-09-12T18:29:52.230Z,16.10
2018-09-12T18:32:21.498Z,16.10
2018-09-12T18:34:50.957Z,16.10
2018-09-12T18:37:20.805Z,16.00
2018-09-12T18:39:50.323Z,15.80
2018-09-12T18:42:20.475Z,15.80
2018-09-12T18:44:49.918Z,15.90
2018-09-12T18:47:19.414Z,16.00
2018-09-12T18:49:48.948Z,16.00
2018-09-12T18:52:18.737Z,16.00
2018-09-12T18:54:48.805Z,16.10
2018-09-12T18:57:18.334Z,16.10
2018-09-12T18:59:47.765Z,16.10
2018-09-12T19:02:17.241Z,16.00
2018-09-12T19:04:47.655Z,15.80
2018-09-12T19:07:16.872Z,15.80
2018-09-12T19:09:46.018Z,15.70
2018-09-12T19:12:15.055Z,15.40
2018-09-12T19:14:44.778Z,15.20
2018-09-12T19:17:14.456Z,15.20
2018-09-12T19:19:43.821Z,15.40
2018-09-12T19:22:13.061Z,15.50
2018-09-12T19:24:43.337Z,15.70
2018-09-12T19:27:12.766Z,15.60
2018-09-12T19:29:42.231Z,15.60
2018-09-12T19:32:11.575Z,15.40
2018-09-12T19:34:40.877Z,15.30
2018-09-12T19:37:10.245Z,15.20
2018-09-12T19:39:39.646Z,15.10
2018-09-12T19:42:08.994Z,15.10
2018-09-12T19:44:38.019Z,15.00
2018-09-12T19:47:07.617Z,14.90
2018-09-12T19:49:37.131Z,14.90
2018-09-12T19:52:07.025Z,14.70
2018-09-12T19:54:37.597Z,14.80
2018-09-12T19:57:07.212Z,14.70
2018-09-12T19:59:36.844Z,14.70
2018-09-12T20:02:06.499Z,14.40
2018-09-12T20:04:35.946Z,14.40
2018-09-12T20:07:05.233Z,14.50
2018-09-12T20:09:35.193Z,14.40
2018-09-12T20:12:04.576Z,14.40
2018-09-12T20:14:34.082Z,14.30
2018-09-12T20:17:03.775Z,14.20
2018-09-12T20:19:33.332Z,14.10
2018-09-12T20:22:02.516Z,14.10
2018-09-12T20:24:31.881Z,14.00
2018-09-12T20:27:01.273Z,13.90
2018-09-12T20:29:30.482Z,13.80
2018-09-12T20:32:00.307Z,13.70
2018-09-12T20:34:31.131Z,13.70
2018-09-12T20:37:00.519Z,13.60
2018-09-12T20:39:29.795Z,13.90
2018-09-12T20:41:58.997Z,13.70
2018-09-12T20:44:28.670Z,13.80
2018-09-12T20:46:58.295Z,13.90
2018-09-12T20:49:27.722Z,13.90
2018-09-12T20:51:57.328Z,13.90
2018-09-12T20:54:26.523Z,13.90
2018-09-12T20:56:56.127Z,13.80
2018-09-12T20:59:26.110Z,13.80
2018-09-12T21:01:55.360Z,13.70
2018-09-12T21:04:24.585Z,13.60
2018-09-12T21:06:53.881Z,13.60
2018-09-12T21:09:22.992Z,13.70
2018-09-12T21:11:52.240Z,13.70
2018-09-12T21:14:21.730Z,13.70
2018-09-12T21:16:51.315Z,13.80
2018-09-12T21:19:20.486Z,13.70
2018-09-12T21:21:49.860Z,13.70
2018-09-12T21:24:19.120Z,13.70
2018-09-12T21:26:48.572Z,13.60
2018-09-12T21:29:17.922Z,13.50
2018-09-12T21:31:47.260Z,13.60
2018-09-12T21:34:16.404Z,13.60
2018-09-12T21:36:45.652Z,13.60
2018-09-12T21:39:15.418Z,13.60
2018-09-12T21:41:44.867Z,13.50
2018-09-12T21:44:14.100Z,13.40
2018-09-12T21:46:43.336Z,13.30
2018-09-12T21:49:12.648Z,13.40
2018-09-12T21:51:42.110Z,13.30
2018-09-12T21:54:11.243Z,13.20
2018-09-12T21:56:40.263Z,13.20
2018-09-12T21:59:09.609Z,13.20
2018-09-12T22:01:38.798Z,13.10
2018-09-12T22:04:07.939Z,13.00
2018-09-12T22:06:37.895Z,13.00
2018-09-12T22:09:10.225Z,12.80
2018-09-12T22:11:39.938Z,12.90
2018-09-12T22:14:09.341Z,13.00
2018-09-12T22:16:38.371Z,13.00
2018-09-12T22:19:09.887Z,12.80
2018-09-12T22:21:40.334Z,12.80
2018-09-12T22:24:10.058Z,12.70
2018-09-12T22:26:39.394Z,12.80
2018-09-12T22:29:08.532Z,12.60
2018-09-12T22:31:38.487Z,12.60
2018-09-12T22:34:07.701Z,12.70
2018-09-12T22:36:36.849Z,12.70
2018-09-12T22:39:08.482Z,12.60
2018-09-12T22:41:38.114Z,12.50
2018-09-12T22:44:07.495Z,12.60
2018-09-12T22:46:36.703Z,12.60
2018-09-12T22:49:05.945Z,12.60
2018-09-12T22:51:35.089Z,12.50
2018-09-12T22:54:04.376Z,12.40
2018-09-12T22:56:33.812Z,12.50
2018-09-12T22:59:03.398Z,12.60
2018-09-12T23:01:32.835Z,12.40
2018-09-12T23:04:02.008Z,12.50
2018-09-12T23:06:31.259Z,12.40
2018-09-12T23:09:00.516Z,12.30
2018-09-12T23:11:29.652Z,12.30
2018-09-12T23:13:58.956Z,12.20
2018-09-12T23:16:28.276Z,12.20
2018-09-12T23:18:57.516Z,12.20
2018-09-12T23:21:27.091Z,12.30
2018-09-12T23:23:56.970Z,12.20
2018-09-12T23:26:26.521Z,12.10
2018-09-12T23:28:56.048Z,12.10
2018-09-12T23:31:25.131Z,12.10
2018-09-12T23:33:54.224Z,12.10
2018-09-12T23:36:23.609Z,12.10
2018-09-12T23:38:52.980Z,12.10
2018-09-12T23:41:22.244Z,12.00
2018-09-12T23:43:51.405Z,11.90
2018-09-12T23:46:20.604Z,11.90
2018-09-12T23:48:49.806Z,11.80
2018-09-12T23:51:19.076Z,11.80
2018-09-12T23:53:49.247Z,11.80
2018-09-12T23:56:18.500Z,11.80
2018-09-12T23:58:47.752Z,11.70
